Terminal Aerodrome Forecast
Issued by NWS Sioux Falls, SD

Home | Current Version | Previous Version | Graphics & Text | Print | Product List | Glossary Off
Versions: 1 2 3 4 5 6 7 8 9 10 11 12 13 14 15 16 17 18 19 20 21 22 23 24 25 26 27 28 29 30 31 32 33

205
FTUS43 KFSD 150537
TAFSUX
TAF
KSUX 150537Z 1506/1606 31011KT P6SM SCT080 BKN110
     FM150800 32013KT P6SM FEW110
     FM151600 32014G21KT P6SM SKC
     FM160000 33009KT P6SM SKC
     FM160400 36005KT P6SM FEW250=

USA.gov is the U.S. government's official web portal to all federal, state and local government web resources and services.